sensor_id;sensor_type;location;lat;lon;timestamp;temperature;humidity
41838;DHT22;27511;52.042;5.178;2023-04-03T00:01:34;8.90;99.90
41838;DHT22;27511;52.042;5.178;2023-04-03T00:04:00;8.90;99.90
41838;DHT22;27511;52.042;5.178;2023-04-03T00:06:26;8.80;99.90
41838;DHT22;27511;52.042;5.178;2023-04-03T00:08:51;8.90;99.90
41838;DHT22;27511;52.042;5.178;2023-04-03T00:11:17;8.80;99.90
41838;DHT22;27511;52.042;5.178;2023-04-03T00:13:43;8.80;99.90
41838;DHT22;27511;52.042;5.178;2023-04-03T00:16:09;8.70;99.90
41838;DHT22;27511;52.042;5.178;2023-04-03T00:18:35;8.70;99.90
41838;DHT22;27511;52.042;5.178;2023-04-03T00:21:01;8.70;99.90
41838;DHT22;27511;52.042;5.178;2023-04-03T00:23:27;8.70;99.90
41838;DHT22;27511;52.042;5.178;2023-04-03T00:25:52;8.70;99.90
41838;DHT22;27511;52.042;5.178;2023-04-03T00:28:18;8.50;99.90
41838;DHT22;27511;52.042;5.178;2023-04-03T00:30:43;8.50;99.90
41838;DHT22;27511;52.042;5.178;2023-04-03T00:33:11;8.50;99.90
41838;DHT22;27511;52.042;5.178;2023-04-03T00:35:37;8.50;99.90
41838;DHT22;27511;52.042;5.178;2023-04-03T00:38:03;8.60;99.90
41838;DHT22;27511;52.042;5.178;2023-04-03T00:40:32;8.40;99.90
41838;DHT22;27511;52.042;5.178;2023-04-03T00:42:58;8.40;99.90
41838;DHT22;27511;52.042;5.178;2023-04-03T00:47:52;8.40;99.90
41838;DHT22;27511;52.042;5.178;2023-04-03T00:50:18;8.40;99.90
41838;DHT22;27511;52.042;5.178;2023-04-03T00:52:43;8.40;99.90
41838;DHT22;27511;52.042;5.178;2023-04-03T00:55:11;8.40;99.90
41838;DHT22;27511;52.042;5.178;2023-04-03T00:57:37;8.40;99.90
41838;DHT22;27511;52.042;5.178;2023-04-03T01:00:10;8.30;99.90
41838;DHT22;27511;52.042;5.178;2023-04-03T01:02:36;8.30;99.90
41838;DHT22;27511;52.042;5.178;2023-04-03T01:05:02;8.20;99.90
41838;DHT22;27511;52.042;5.178;2023-04-03T01:07:29;8.20;99.90
41838;DHT22;27511;52.042;5.178;2023-04-03T01:10:00;8.20;99.90
41838;DHT22;27511;52.042;5.178;2023-04-03T01:12:27;8.20;99.90
41838;DHT22;27511;52.042;5.178;2023-04-03T01:14:54;8.20;99.90
41838;DHT22;27511;52.042;5.178;2023-04-03T01:22:30;8.20;99.90
41838;DHT22;27511;52.042;5.178;2023-04-03T01:25:00;8.10;99.90
41838;DHT22;27511;52.042;5.178;2023-04-03T01:27:26;8.10;99.90
41838;DHT22;27511;52.042;5.178;2023-04-03T01:29:52;8.10;99.90
41838;DHT22;27511;52.042;5.178;2023-04-03T01:32:18;8.00;99.90
41838;DHT22;27511;52.042;5.178;2023-04-03T01:34:43;8.00;99.90
41838;DHT22;27511;52.042;5.178;2023-04-03T01:37:09;8.00;99.90
41838;DHT22;27511;52.042;5.178;2023-04-03T01:39:34;8.00;99.90
41838;DHT22;27511;52.042;5.178;2023-04-03T01:42:00;8.00;99.90
41838;DHT22;27511;52.042;5.178;2023-04-03T01:44:25;7.90;99.90
41838;DHT22;27511;52.042;5.178;2023-04-03T01:46:51;7.90;99.90
41838;DHT22;27511;52.042;5.178;2023-04-03T01:49:16;8.00;99.90
41838;DHT22;27511;52.042;5.178;2023-04-03T01:51:42;8.00;99.90
41838;DHT22;27511;52.042;5.178;2023-04-03T01:54:07;7.90;99.90
41838;DHT22;27511;52.042;5.178;2023-04-03T01:56:33;7.80;99.90
41838;DHT22;27511;52.042;5.178;2023-04-03T01:58:58;7.90;99.90
41838;DHT22;27511;52.042;5.178;2023-04-03T02:01:24;7.80;99.90
41838;DHT22;27511;52.042;5.178;2023-04-03T02:03:51;7.80;99.90
41838;DHT22;27511;52.042;5.178;2023-04-03T02:06:16;7.80;99.90
41838;DHT22;27511;52.042;5.178;2023-04-03T02:08:42;7.80;99.90
41838;DHT22;27511;52.042;5.178;2023-04-03T02:11:07;7.80;99.90
41838;DHT22;27511;52.042;5.178;2023-04-03T02:13:32;7.60;99.90
41838;DHT22;27511;52.042;5.178;2023-04-03T02:15:58;7.50;99.90
41838;DHT22;27511;52.042;5.178;2023-04-03T02:18:24;7.50;99.90
41838;DHT22;27511;52.042;5.178;2023-04-03T02:20:49;7.60;99.90
41838;DHT22;27511;52.042;5.178;2023-04-03T02:23:15;7.60;99.90
41838;DHT22;27511;52.042;5.178;2023-04-03T02:25:40;7.60;99.90
41838;DHT22;27511;52.042;5.178;2023-04-03T02:28:06;7.50;99.90
41838;DHT22;27511;52.042;5.178;2023-04-03T02:30:31;7.50;99.90
41838;DHT22;27511;52.042;5.178;2023-04-03T02:32:57;7.50;99.90
41838;DHT22;27511;52.042;5.178;2023-04-03T02:35:22;7.40;99.90
41838;DHT22;27511;52.042;5.178;2023-04-03T02:37:48;7.40;99.90
41838;DHT22;27511;52.042;5.178;2023-04-03T02:40:14;7.50;99.90
41838;DHT22;27511;52.042;5.178;2023-04-03T02:42:39;7.30;99.90
41838;DHT22;27511;52.042;5.178;2023-04-03T02:45:05;7.30;99.90
41838;DHT22;27511;52.042;5.178;2023-04-03T02:47:31;7.30;99.90
41838;DHT22;27511;52.042;5.178;2023-04-03T02:49:56;7.20;99.90
41838;DHT22;27511;52.042;5.178;2023-04-03T02:52:21;7.30;99.90
41838;DHT22;27511;52.042;5.178;2023-04-03T02:54:47;7.30;99.90
41838;DHT22;27511;52.042;5.178;2023-04-03T02:57:12;7.30;99.90
41838;DHT22;27511;52.042;5.178;2023-04-03T02:59:38;7.40;99.90
41838;DHT22;27511;52.042;5.178;2023-04-03T03:02:07;7.30;99.90
41838;DHT22;27511;52.042;5.178;2023-04-03T03:04:32;7.20;99.90
41838;DHT22;27511;52.042;5.178;2023-04-03T03:06:58;7.10;99.90
41838;DHT22;27511;52.042;5.178;2023-04-03T03:09:24;7.00;99.90
41838;DHT22;27511;52.042;5.178;2023-04-03T03:11:50;7.10;99.90
41838;DHT22;27511;52.042;5.178;2023-04-03T03:14:15;7.20;99.90
41838;DHT22;27511;52.042;5.178;2023-04-03T03:16:41;7.10;99.90
41838;DHT22;27511;52.042;5.178;2023-04-03T03:19:06;7.20;99.90
41838;DHT22;27511;52.042;5.178;2023-04-03T03:21:32;7.10;99.90
41838;DHT22;27511;52.042;5.178;2023-04-03T03:23:57;7.10;99.90
41838;DHT22;27511;52.042;5.178;2023-04-03T03:26:23;7.10;99.90
41838;DHT22;27511;52.042;5.178;2023-04-03T03:28:48;7.00;99.90
41838;DHT22;27511;52.042;5.178;2023-04-03T03:31:14;7.10;99.90
41838;DHT22;27511;52.042;5.178;2023-04-03T03:33:40;7.10;99.90
41838;DHT22;27511;52.042;5.178;2023-04-03T03:36:06;7.10;99.90
41838;DHT22;27511;52.042;5.178;2023-04-03T03:38:31;7.00;99.90
41838;DHT22;27511;52.042;5.178;2023-04-03T03:40:57;7.10;99.90
41838;DHT22;27511;52.042;5.178;2023-04-03T03:43:22;7.10;99.90
41838;DHT22;27511;52.042;5.178;2023-04-03T03:45:51;7.00;99.90
41838;DHT22;27511;52.042;5.178;2023-04-03T03:48:17;7.00;99.90
41838;DHT22;27511;52.042;5.178;2023-04-03T03:50:43;6.90;99.90
41838;DHT22;27511;52.042;5.178;2023-04-03T03:53:08;7.00;99.90
41838;DHT22;27511;52.042;5.178;2023-04-03T03:55:34;7.00;99.90
41838;DHT22;27511;52.042;5.178;2023-04-03T03:57:59;6.90;99.90
41838;DHT22;27511;52.042;5.178;2023-04-03T04:00:26;7.00;99.90
41838;DHT22;27511;52.042;5.178;2023-04-03T04:02:51;6.90;99.90
41838;DHT22;27511;52.042;5.178;2023-04-03T04:05:17;6.90;99.90
41838;DHT22;27511;52.042;5.178;2023-04-03T04:07:43;6.90;99.90
41838;DHT22;27511;52.042;5.178;2023-04-03T04:10:08;6.80;99.90
41838;DHT22;27511;52.042;5.178;2023-04-03T04:12:34;6.90;99.90
41838;DHT22;27511;52.042;5.178;2023-04-03T04:15:01;6.80;99.90
41838;DHT22;27511;52.042;5.178;2023-04-03T04:17:26;6.90;99.90
41838;DHT22;27511;52.042;5.178;2023-04-03T04:19:51;6.90;99.90
41838;DHT22;27511;52.042;5.178;2023-04-03T04:22:17;6.90;99.90
41838;DHT22;27511;52.042;5.178;2023-04-03T04:24:42;6.80;99.90
41838;DHT22;27511;52.042;5.178;2023-04-03T04:27:08;6.80;99.90
41838;DHT22;27511;52.042;5.178;2023-04-03T04:29:33;6.70;99.90
41838;DHT22;27511;52.042;5.178;2023-04-03T04:32:01;6.70;99.90
41838;DHT22;27511;52.042;5.178;2023-04-03T04:34:27;6.60;99.90
41838;DHT22;27511;52.042;5.178;2023-04-03T04:36:52;6.80;99.90
41838;DHT22;27511;52.042;5.178;2023-04-03T04:39:18;6.70;99.90
41838;DHT22;27511;52.042;5.178;2023-04-03T04:41:43;6.70;99.90
41838;DHT22;27511;52.042;5.178;2023-04-03T04:44:08;6.70;99.90
41838;DHT22;27511;52.042;5.178;2023-04-03T04:46:34;6.60;99.90
41838;DHT22;27511;52.042;5.178;2023-04-03T04:49:00;6.60;99.90
41838;DHT22;27511;52.042;5.178;2023-04-03T04:51:25;6.60;99.90
41838;DHT22;27511;52.042;5.178;2023-04-03T04:53:50;6.60;99.90
41838;DHT22;27511;52.042;5.178;2023-04-03T04:56:16;6.50;99.90
41838;DHT22;27511;52.042;5.178;2023-04-03T04:58:41;6.50;99.90
41838;DHT22;27511;52.042;5.178;2023-04-03T05:01:08;6.50;99.90
41838;DHT22;27511;52.042;5.178;2023-04-03T05:03:34;6.60;99.90
41838;DHT22;27511;52.042;5.178;2023-04-03T05:05:59;6.60;99.90
41838;DHT22;27511;52.042;5.178;2023-04-03T05:08:26;6.70;99.90
41838;DHT22;27511;52.042;5.178;2023-04-03T05:10:51;6.60;99.90
41838;DHT22;27511;52.042;5.178;2023-04-03T05:13:18;6.70;99.90
41838;DHT22;27511;52.042;5.178;2023-04-03T05:15:44;6.60;99.90
41838;DHT22;27511;52.042;5.178;2023-04-03T05:18:10;6.60;99.90
41838;DHT22;27511;52.042;5.178;2023-04-03T05:20:35;6.60;99.90
41838;DHT22;27511;52.042;5.178;2023-04-03T05:23:02;6.60;99.90
41838;DHT22;27511;52.042;5.178;2023-04-03T05:25:28;6.60;99.90
41838;DHT22;27511;52.042;5.178;2023-04-03T05:27:53;6.60;99.90
41838;DHT22;27511;52.042;5.178;2023-04-03T05:30:19;6.50;99.90
41838;DHT22;27511;52.042;5.178;2023-04-03T05:32:44;6.60;99.90
41838;DHT22;27511;52.042;5.178;2023-04-03T05:35:10;6.50;99.90
41838;DHT22;27511;52.042;5.178;2023-04-03T05:37:36;6.50;99.90
41838;DHT22;27511;52.042;5.178;2023-04-03T05:40:02;6.50;99.90
41838;DHT22;27511;52.042;5.178;2023-04-03T05:42:28;6.50;99.90
41838;DHT22;27511;52.042;5.178;2023-04-03T05:44:53;6.50;99.90
41838;DHT22;27511;52.042;5.178;2023-04-03T05:47:19;6.60;99.90
41838;DHT22;27511;52.042;5.178;2023-04-03T05:49:44;6.60;99.90
41838;DHT22;27511;52.042;5.178;2023-04-03T05:52:17;6.70;99.90
41838;DHT22;27511;52.042;5.178;2023-04-03T05:54:45;6.60;99.90
41838;DHT22;27511;52.042;5.178;2023-04-03T05:57:13;6.60;99.90
41838;DHT22;27511;52.042;5.178;2023-04-03T05:59:39;6.60;99.90
41838;DHT22;27511;52.042;5.178;2023-04-03T06:02:05;6.60;99.90
41838;DHT22;27511;52.042;5.178;2023-04-03T06:04:31;6.70;99.90
41838;DHT22;27511;52.042;5.178;2023-04-03T06:06:56;6.60;99.90
41838;DHT22;27511;52.042;5.178;2023-04-03T06:09:26;6.50;99.90
41838;DHT22;27511;52.042;5.178;2023-04-03T06:11:52;6.50;99.90
41838;DHT22;27511;52.042;5.178;2023-04-03T06:14:18;6.70;99.90
41838;DHT22;27511;52.042;5.178;2023-04-03T06:16:44;6.60;99.90
41838;DHT22;27511;52.042;5.178;2023-04-03T06:19:10;6.70;99.90
41838;DHT22;27511;52.042;5.178;2023-04-03T06:21:36;6.60;99.90
41838;DHT22;27511;52.042;5.178;2023-04-03T06:24:04;6.60;99.90
41838;DHT22;27511;52.042;5.178;2023-04-03T06:26:30;6.70;99.90
41838;DHT22;27511;52.042;5.178;2023-04-03T06:28:55;6.70;99.90
41838;DHT22;27511;52.042;5.178;2023-04-03T06:31:21;6.70;99.90
41838;DHT22;27511;52.042;5.178;2023-04-03T06:33:47;6.80;99.90
41838;DHT22;27511;52.042;5.178;2023-04-03T06:36:13;6.80;99.90
41838;DHT22;27511;52.042;5.178;2023-04-03T06:38:38;6.80;99.90
41838;DHT22;27511;52.042;5.178;2023-04-03T06:41:04;6.80;99.90
41838;DHT22;27511;52.042;5.178;2023-04-03T06:43:29;6.90;99.90
41838;DHT22;27511;52.042;5.178;2023-04-03T06:45:56;7.00;99.90
41838;DHT22;27511;52.042;5.178;2023-04-03T06:48:22;6.90;99.90
41838;DHT22;27511;52.042;5.178;2023-04-03T06:50:47;7.00;99.90
41838;DHT22;27511;52.042;5.178;2023-04-03T06:53:13;7.10;99.90
41838;DHT22;27511;52.042;5.178;2023-04-03T06:55:38;7.20;99.90
41838;DHT22;27511;52.042;5.178;2023-04-03T06:58:04;7.20;99.90
41838;DHT22;27511;52.042;5.178;2023-04-03T07:00:29;7.20;99.90
41838;DHT22;27511;52.042;5.178;2023-04-03T07:02:55;7.20;99.90
41838;DHT22;27511;52.042;5.178;2023-04-03T07:05:23;7.20;99.90
41838;DHT22;27511;52.042;5.178;2023-04-03T07:07:48;7.30;99.90
41838;DHT22;27511;52.042;5.178;2023-04-03T07:10:15;7.30;99.90
41838;DHT22;27511;52.042;5.178;2023-04-03T07:12:40;7.40;99.90
41838;DHT22;27511;52.042;5.178;2023-04-03T07:15:06;7.40;99.90
41838;DHT22;27511;52.042;5.178;2023-04-03T07:17:32;7.40;99.90
41838;DHT22;27511;52.042;5.178;2023-04-03T07:19:57;7.40;99.90
41838;DHT22;27511;52.042;5.178;2023-04-03T07:22:23;7.50;99.90
41838;DHT22;27511;52.042;5.178;2023-04-03T07:24:48;7.50;99.90
41838;DHT22;27511;52.042;5.178;2023-04-03T07:27:14;7.50;99.90
41838;DHT22;27511;52.042;5.178;2023-04-03T07:29:39;7.60;99.90
41838;DHT22;27511;52.042;5.178;2023-04-03T07:32:05;7.60;99.90
41838;DHT22;27511;52.042;5.178;2023-04-03T07:34:32;7.60;99.90
41838;DHT22;27511;52.042;5.178;2023-04-03T07:36:58;7.70;99.90
41838;DHT22;27511;52.042;5.178;2023-04-03T07:39:23;7.70;99.90
41838;DHT22;27511;52.042;5.178;2023-04-03T07:41:49;7.60;99.90
41838;DHT22;27511;52.042;5.178;2023-04-03T07:44:14;7.70;99.90
41838;DHT22;27511;52.042;5.178;2023-04-03T07:46:40;7.70;99.90
41838;DHT22;27511;52.042;5.178;2023-04-03T07:49:06;7.80;99.90
41838;DHT22;27511;52.042;5.178;2023-04-03T07:51:31;7.90;99.90
41838;DHT22;27511;52.042;5.178;2023-04-03T07:53:57;7.90;99.90
41838;DHT22;27511;52.042;5.178;2023-04-03T07:56:23;8.00;99.90
41838;DHT22;27511;52.042;5.178;2023-04-03T07:58:48;8.00;99.90
41838;DHT22;27511;52.042;5.178;2023-04-03T08:01:14;8.10;99.90
41838;DHT22;27511;52.042;5.178;2023-04-03T08:03:39;8.10;99.90
41838;DHT22;27511;52.042;5.178;2023-04-03T08:06:06;8.10;99.90
41838;DHT22;27511;52.042;5.178;2023-04-03T08:08:32;8.20;99.90
41838;DHT22;27511;52.042;5.178;2023-04-03T08:10:58;8.20;99.90
41838;DHT22;27511;52.042;5.178;2023-04-03T08:13:24;8.20;99.90
41838;DHT22;27511;52.042;5.178;2023-04-03T08:15:49;8.40;99.90
41838;DHT22;27511;52.042;5.178;2023-04-03T08:18:16;8.50;99.90
41838;DHT22;27511;52.042;5.178;2023-04-03T08:20:41;8.50;99.90
41838;DHT22;27511;52.042;5.178;2023-04-03T08:23:07;8.50;99.90
41838;DHT22;27511;52.042;5.178;2023-04-03T08:25:42;8.50;99.90
41838;DHT22;27511;52.042;5.178;2023-04-03T08:28:08;8.70;99.90
41838;DHT22;27511;52.042;5.178;2023-04-03T08:30:34;8.60;99.90
41838;DHT22;27511;52.042;5.178;2023-04-03T08:33:00;8.60;99.90
41838;DHT22;27511;52.042;5.178;2023-04-03T08:35:26;8.60;99.90
41838;DHT22;27511;52.042;5.178;2023-04-03T08:37:51;8.70;99.90
41838;DHT22;27511;52.042;5.178;2023-04-03T08:40:17;8.60;99.90
41838;DHT22;27511;52.042;5.178;2023-04-03T08:45:29;8.80;99.90
41838;DHT22;27511;52.042;5.178;2023-04-03T08:48:01;8.90;99.90
41838;DHT22;27511;52.042;5.178;2023-04-03T08:50:42;8.90;99.90
41838;DHT22;27511;52.042;5.178;2023-04-03T08:53:15;8.90;99.90
41838;DHT22;27511;52.042;5.178;2023-04-03T08:58:09;9.10;99.90
41838;DHT22;27511;52.042;5.178;2023-04-03T09:00:50;9.30;99.90
41838;DHT22;27511;52.042;5.178;2023-04-03T09:03:16;9.40;99.90
41838;DHT22;27511;52.042;5.178;2023-04-03T09:08:28;9.30;99.90
41838;DHT22;27511;52.042;5.178;2023-04-03T09:13:57;9.50;99.90
41838;DHT22;27511;52.042;5.178;2023-04-03T09:16:32;9.40;99.90
41838;DHT22;27511;52.042;5.178;2023-04-03T09:19:04;9.60;99.90
41838;DHT22;27511;52.042;5.178;2023-04-03T09:21:35;9.80;99.90
41838;DHT22;27511;52.042;5.178;2023-04-03T09:24:02;9.90;99.90
41838;DHT22;27511;52.042;5.178;2023-04-03T09:26:33;10.10;99.90
41838;DHT22;27511;52.042;5.178;2023-04-03T09:29:02;10.00;99.90
41838;DHT22;27511;52.042;5.178;2023-04-03T09:31:32;9.90;99.90
41838;DHT22;27511;52.042;5.178;2023-04-03T09:34:02;9.80;99.90
41838;DHT22;27511;52.042;5.178;2023-04-03T09:39:53;9.70;99.90
41838;DHT22;27511;52.042;5.178;2023-04-03T09:44:48;9.80;99.90
41838;DHT22;27511;52.042;5.178;2023-04-03T09:49:43;9.80;99.90
41838;DHT22;27511;52.042;5.178;2023-04-03T09:52:27;9.80;99.90
41838;DHT22;27511;52.042;5.178;2023-04-03T09:54:53;9.90;99.90
41838;DHT22;27511;52.042;5.178;2023-04-03T09:57:20;10.00;99.90
41838;DHT22;27511;52.042;5.178;2023-04-03T10:04:43;10.00;99.90
41838;DHT22;27511;52.042;5.178;2023-04-03T10:07:28;10.00;99.90
41838;DHT22;27511;52.042;5.178;2023-04-03T10:09:55;10.10;99.90
41838;DHT22;27511;52.042;5.178;2023-04-03T10:12:21;10.10;99.90
41838;DHT22;27511;52.042;5.178;2023-04-03T10:17:20;10.00;99.90
41838;DHT22;27511;52.042;5.178;2023-04-03T10:19:51;10.20;99.90
41838;DHT22;27511;52.042;5.178;2023-04-03T10:37:42;10.80;99.90
41838;DHT22;27511;52.042;5.178;2023-04-03T10:48:46;10.90;99.90
41838;DHT22;27511;52.042;5.178;2023-04-03T10:58:57;11.60;99.90
41838;DHT22;27511;52.042;5.178;2023-04-03T11:01:24;11.20;99.90
41838;DHT22;27511;52.042;5.178;2023-04-03T11:03:56;11.10;99.90
41838;DHT22;27511;52.042;5.178;2023-04-03T11:06:22;11.10;99.90
41838;DHT22;27511;52.042;5.178;2023-04-03T11:11:49;11.50;99.90
41838;DHT22;27511;52.042;5.178;2023-04-03T11:14:13;11.40;99.90
41838;DHT22;27511;52.042;5.178;2023-04-03T11:16:48;11.40;99.90
41838;DHT22;27511;52.042;5.178;2023-04-03T11:19:20;11.40;99.90
41838;DHT22;27511;52.042;5.178;2023-04-03T11:21:51;11.60;99.90
41838;DHT22;27511;52.042;5.178;2023-04-03T11:24:22;11.60;99.90
41838;DHT22;27511;52.042;5.178;2023-04-03T11:26:48;11.60;99.90
41838;DHT22;27511;52.042;5.178;2023-04-03T11:29:17;11.60;99.90
41838;DHT22;27511;52.042;5.178;2023-04-03T11:31:56;11.50;99.90
41838;DHT22;27511;52.042;5.178;2023-04-03T11:36:54;11.70;99.90
41838;DHT22;27511;52.042;5.178;2023-04-03T11:41:53;11.60;99.90
41838;DHT22;27511;52.042;5.178;2023-04-03T11:46:57;11.70;99.90
41838;DHT22;27511;52.042;5.178;2023-04-03T11:52:09;11.90;99.90
41838;DHT22;27511;52.042;5.178;2023-04-03T11:54:42;11.90;99.90
41838;DHT22;27511;52.042;5.178;2023-04-03T11:59:53;11.70;99.90
41838;DHT22;27511;52.042;5.178;2023-04-03T12:02:34;11.70;99.90
41838;DHT22;27511;52.042;5.178;2023-04-03T12:07:56;11.90;99.90
41838;DHT22;27511;52.042;5.178;2023-04-03T12:10:30;12.00;99.90
41838;DHT22;27511;52.042;5.178;2023-04-03T12:12:56;12.10;99.90
41838;DHT22;27511;52.042;5.178;2023-04-03T12:15:26;12.40;99.90
41838;DHT22;27511;52.042;5.178;2023-04-03T12:17:52;12.70;99.90
41838;DHT22;27511;52.042;5.178;2023-04-03T12:25:48;13.40;99.90
41838;DHT22;27511;52.042;5.178;2023-04-03T12:28:15;13.50;99.90
41838;DHT22;27511;52.042;5.178;2023-04-03T12:30:40;13.70;99.90
41838;DHT22;27511;52.042;5.178;2023-04-03T12:44:05;14.80;99.90
41838;DHT22;27511;52.042;5.178;2023-04-03T12:46:38;15.10;99.90
41838;DHT22;27511;52.042;5.178;2023-04-03T12:49:13;15.30;99.90
41838;DHT22;27511;52.042;5.178;2023-04-03T12:51:40;15.50;99.90
41838;DHT22;27511;52.042;5.178;2023-04-03T12:54:13;15.80;99.90
41838;DHT22;27511;52.042;5.178;2023-04-03T12:56:40;16.00;99.90
41838;DHT22;27511;52.042;5.178;2023-04-03T12:59:19;16.40;99.90
41838;DHT22;27511;52.042;5.178;2023-04-03T13:01:52;16.70;99.90
41838;DHT22;27511;52.042;5.178;2023-04-03T13:04:18;17.20;99.90
41838;DHT22;27511;52.042;5.178;2023-04-03T13:06:43;17.70;99.90
41838;DHT22;27511;52.042;5.178;2023-04-03T13:09:20;17.90;99.90
41838;DHT22;27511;52.042;5.178;2023-04-03T13:11:49;18.40;99.90
41838;DHT22;27511;52.042;5.178;2023-04-03T13:14:22;19.00;99.90
41838;DHT22;27511;52.042;5.178;2023-04-03T13:19:20;20.00;99.90
41838;DHT22;27511;52.042;5.178;2023-04-03T13:21:55;20.30;99.90
41838;DHT22;27511;52.042;5.178;2023-04-03T13:24:22;20.70;99.90
41838;DHT22;27511;52.042;5.178;2023-04-03T13:26:47;20.90;99.90
41838;DHT22;27511;52.042;5.178;2023-04-03T13:29:24;21.10;99.90
41838;DHT22;27511;52.042;5.178;2023-04-03T13:31:52;21.20;99.90
41838;DHT22;27511;52.042;5.178;2023-04-03T13:34:18;21.40;99.90
41838;DHT22;27511;52.042;5.178;2023-04-03T13:36:50;21.20;99.90
41838;DHT22;27511;52.042;5.178;2023-04-03T13:39:23;21.10;99.90
41838;DHT22;27511;52.042;5.178;2023-04-03T13:41:51;21.40;99.90
41838;DHT22;27511;52.042;5.178;2023-04-03T13:46:49;21.90;99.90
41838;DHT22;27511;52.042;5.178;2023-04-03T13:49:22;22.00;99.90
41838;DHT22;27511;52.042;5.178;2023-04-03T13:51:52;22.40;99.90
41838;DHT22;27511;52.042;5.178;2023-04-03T13:54:22;22.80;99.90
41838;DHT22;27511;52.042;5.178;2023-04-03T13:56:58;22.70;99.90
41838;DHT22;27511;52.042;5.178;2023-04-03T13:59:28;23.00;99.90
41838;DHT22;27511;52.042;5.178;2023-04-03T14:01:55;23.40;99.90
41838;DHT22;27511;52.042;5.178;2023-04-03T14:04:31;23.40;99.90
41838;DHT22;27511;52.042;5.178;2023-04-03T14:06:57;23.20;99.90
41838;DHT22;27511;52.042;5.178;2023-04-03T14:09:23;23.00;99.90
41838;DHT22;27511;52.042;5.178;2023-04-03T14:11:50;22.60;99.90
41838;DHT22;27511;52.042;5.178;2023-04-03T14:14:19;22.10;99.90
41838;DHT22;27511;52.042;5.178;2023-04-03T14:16:46;21.60;99.90
41838;DHT22;27511;52.042;5.178;2023-04-03T14:19:23;21.10;99.90
41838;DHT22;27511;52.042;5.178;2023-04-03T14:21:48;20.60;99.90
41838;DHT22;27511;52.042;5.178;2023-04-03T14:24:16;20.40;99.90
41838;DHT22;27511;52.042;5.178;2023-04-03T14:26:42;20.30;99.90
41838;DHT22;27511;52.042;5.178;2023-04-03T14:29:09;20.20;99.90
41838;DHT22;27511;52.042;5.178;2023-04-03T14:31:35;20.20;99.90
41838;DHT22;27511;52.042;5.178;2023-04-03T14:34:00;20.30;99.90
41838;DHT22;27511;52.042;5.178;2023-04-03T14:36:28;20.30;99.90
41838;DHT22;27511;52.042;5.178;2023-04-03T14:38:53;20.20;99.90
41838;DHT22;27511;52.042;5.178;2023-04-03T14:41:20;20.20;99.90
41838;DHT22;27511;52.042;5.178;2023-04-03T14:43:47;20.10;99.90
41838;DHT22;27511;52.042;5.178;2023-04-03T14:48:40;20.50;99.90
41838;DHT22;27511;52.042;5.178;2023-04-03T14:51:06;20.60;99.90
41838;DHT22;27511;52.042;5.178;2023-04-03T14:53:32;20.30;99.90
41838;DHT22;27511;52.042;5.178;2023-04-03T14:55:57;20.10;99.90
41838;DHT22;27511;52.042;5.178;2023-04-03T14:58:23;20.00;99.90
41838;DHT22;27511;52.042;5.178;2023-04-03T15:00:48;20.10;99.90
41838;DHT22;27511;52.042;5.178;2023-04-03T15:03:19;20.70;99.90
41838;DHT22;27511;52.042;5.178;2023-04-03T15:05:46;21.10;99.90
41838;DHT22;27511;52.042;5.178;2023-04-03T15:08:21;22.10;99.90
41838;DHT22;27511;52.042;5.178;2023-04-03T15:10:48;23.40;99.90
41838;DHT22;27511;52.042;5.178;2023-04-03T15:13:14;24.10;99.90
41838;DHT22;27511;52.042;5.178;2023-04-03T15:15:39;24.90;99.90
41838;DHT22;27511;52.042;5.178;2023-04-03T15:18:05;25.80;99.90
41838;DHT22;27511;52.042;5.178;2023-04-03T15:20:31;26.40;99.90
41838;DHT22;27511;52.042;5.178;2023-04-03T15:22:58;26.20;99.90
41838;DHT22;27511;52.042;5.178;2023-04-03T15:25:26;26.00;99.90
41838;DHT22;27511;52.042;5.178;2023-04-03T15:27:53;26.10;99.90
41838;DHT22;27511;52.042;5.178;2023-04-03T15:30:18;26.10;99.90
41838;DHT22;27511;52.042;5.178;2023-04-03T15:32:44;26.30;99.90
41838;DHT22;27511;52.042;5.178;2023-04-03T15:35:10;26.40;99.90
41838;DHT22;27511;52.042;5.178;2023-04-03T15:37:35;26.20;99.90
41838;DHT22;27511;52.042;5.178;2023-04-03T15:40:01;26.10;99.90
41838;DHT22;27511;52.042;5.178;2023-04-03T15:42:27;24.90;99.90
41838;DHT22;27511;52.042;5.178;2023-04-03T15:44:52;23.50;99.90
41838;DHT22;27511;52.042;5.178;2023-04-03T15:47:18;22.40;99.90
41838;DHT22;27511;52.042;5.178;2023-04-03T15:49:43;21.70;99.90
41838;DHT22;27511;52.042;5.178;2023-04-03T15:52:09;21.90;99.90
41838;DHT22;27511;52.042;5.178;2023-04-03T15:54:34;22.40;99.90
41838;DHT22;27511;52.042;5.178;2023-04-03T15:57:00;22.30;99.90
41838;DHT22;27511;52.042;5.178;2023-04-03T15:59:25;22.00;99.90
41838;DHT22;27511;52.042;5.178;2023-04-03T16:01:51;21.70;99.90
41838;DHT22;27511;52.042;5.178;2023-04-03T16:04:17;21.30;99.90
41838;DHT22;27511;52.042;5.178;2023-04-03T16:06:43;21.30;99.90
41838;DHT22;27511;52.042;5.178;2023-04-03T16:09:09;21.30;99.90
41838;DHT22;27511;52.042;5.178;2023-04-03T16:11:34;21.70;99.90
41838;DHT22;27511;52.042;5.178;2023-04-03T16:14:01;22.30;99.90
41838;DHT22;27511;52.042;5.178;2023-04-03T16:16:27;23.50;99.90
41838;DHT22;27511;52.042;5.178;2023-04-03T16:18:53;24.00;99.90
41838;DHT22;27511;52.042;5.178;2023-04-03T16:21:19;24.30;99.90
41838;DHT22;27511;52.042;5.178;2023-04-03T16:23:44;24.20;99.90
41838;DHT22;27511;52.042;5.178;2023-04-03T16:26:10;23.70;99.90
41838;DHT22;27511;52.042;5.178;2023-04-03T16:28:35;23.00;99.90
41838;DHT22;27511;52.042;5.178;2023-04-03T16:31:01;22.30;99.90
41838;DHT22;27511;52.042;5.178;2023-04-03T16:33:27;21.60;99.90
41838;DHT22;27511;52.042;5.178;2023-04-03T16:35:52;20.80;99.90
41838;DHT22;27511;52.042;5.178;2023-04-03T16:38:18;19.70;99.90
41838;DHT22;27511;52.042;5.178;2023-04-03T16:40:44;19.10;99.90
41838;DHT22;27511;52.042;5.178;2023-04-03T16:43:10;18.50;99.90
41838;DHT22;27511;52.042;5.178;2023-04-03T16:45:36;18.10;99.90
41838;DHT22;27511;52.042;5.178;2023-04-03T16:48:02;17.60;99.90
41838;DHT22;27511;52.042;5.178;2023-04-03T16:50:27;17.40;99.90
41838;DHT22;27511;52.042;5.178;2023-04-03T16:52:53;17.10;99.90
41838;DHT22;27511;52.042;5.178;2023-04-03T16:55:18;16.70;99.90
41838;DHT22;27511;52.042;5.178;2023-04-03T16:57:45;16.50;99.90
41838;DHT22;27511;52.042;5.178;2023-04-03T17:00:10;16.30;99.90
41838;DHT22;27511;52.042;5.178;2023-04-03T17:02:36;16.00;99.90
41838;DHT22;27511;52.042;5.178;2023-04-03T17:05:02;15.80;99.90
41838;DHT22;27511;52.042;5.178;2023-04-03T17:07:28;15.30;99.90
41838;DHT22;27511;52.042;5.178;2023-04-03T17:09:53;15.20;99.90
41838;DHT22;27511;52.042;5.178;2023-04-03T17:12:19;15.10;99.90
41838;DHT22;27511;52.042;5.178;2023-04-03T17:14:44;15.10;99.90
41838;DHT22;27511;52.042;5.178;2023-04-03T17:17:12;14.70;99.90
41838;DHT22;27511;52.042;5.178;2023-04-03T17:19:38;14.60;99.90
41838;DHT22;27511;52.042;5.178;2023-04-03T17:22:03;14.50;99.90
41838;DHT22;27511;52.042;5.178;2023-04-03T17:24:29;14.50;99.90
41838;DHT22;27511;52.042;5.178;2023-04-03T17:26:54;14.30;99.90